• Join FlightAware (Why Join?)
  • Login
  • US Flag 
01:36AM EST


 

Airport Tracker/Info


-or-


 

Live Flight TrackerFlight Track Log ✈ DAL6120 ✈ 26-Jul-2013 ✈ KMHT - KDTW

Flight Track Log - Related Links

Times and Time Zones

All times are in EDT time to prevent confusion due to time zone crossing. See the DAL6120 flight status page for this flight to view local times or setup timezone preferences in your user account.

Time Position Orientation Groundspeed Altitude Reporting Facility
EDT Latitude Longitude Course Direction KTS MPH feet Rate Location/Type
06:48PM 42.9833 -71.4667 340° North 184 212 2,900  Level KA90
06:49PM 43.0500 -71.5000 340° North 234 269 4,800 2,100 Climbing KA90
06:51PM 42.9500 -71.9553 270° West  Level FlightAware Approximate
06:51PM 43.1086 -71.6922 293° West 249 287 9,600  Level Boston Center
06:52PM 42.9501 -72.0871 270° West  Level FlightAware Approximate
06:52PM 43.1342 -71.7858 291° West 281 323 10,000  Level Boston Center
06:53PM 42.9501 -72.2189 274° West  Level FlightAware Approximate
06:53PM 43.1725 -71.9219 291° West 336 387 10,000  Level Boston Center
06:54PM 43.1750 -72.0414 272° West 352 405 11,100 1,260 Climbing Boston Center
06:55PM 43.1797 -72.1981 272° West 368 423 12,600 1,260 Climbing Boston Center
06:56PM 43.1819 -72.3206 271° West 362 417 13,900 1,380 Climbing Boston Center
06:58PM 43.1839 -72.4883 271° West 362 417 15,700 1,620 Climbing Boston Center
06:59PM 43.1858 -72.6222 271° West 362 417 17,200 1,440 Climbing Boston Center
06:59PM 43.1856 -72.7619 270° West 362 417 18,600 1,260 Climbing Boston Center
07:00PM 43.1875 -72.8700 271° West 362 417 19,800 1,440 Climbing Boston Center
07:02PM 43.1886 -73.0408 271° West 367 422 21,600 1,560 Climbing Boston Center
07:03PM 43.1900 -73.1747 271° West 367 422 23,000 1,440 Climbing Boston Center
07:03PM 43.1911 -73.3144 271° West 367 422 24,500 1,620 Climbing Boston Center
07:04PM 43.1878 -73.4653 268° West 361 415 26,200 1,200 Climbing Boston Center
07:05PM 43.1864 -73.5989 269° West 366 421 27,000 720 Climbing Boston Center
07:07PM 43.1872 -73.7186 271° West 371 427 27,700 1,080 Climbing Boston Center
07:08PM 43.1856 -73.8694 269° West 371 427 29,300 1,020 Climbing Boston Center
07:09PM 43.1858 -74.0092 270° West 371 427 30,000 300 Climbing Boston Center
07:10PM 43.1872 -74.1942 271° West 385 443 30,000  Level Boston Center
07:11PM 43.1867 -74.3536 270° West 406 467 30,000  Level Boston Center
07:12PM 43.1839 -74.5131 269° West 424 488 30,000 300 Level Boston Center
07:13PM 43.1850 -74.6725 271° West 424 488 30,600 900 Climbing Boston Center
07:14PM 43.1822 -74.8206 269° West 412 474 31,900 600 Climbing Boston Center
07:15PM 43.1808 -74.9772 269° West 407 468 32,000  Climbing Boston Center
07:16PM 43.1764 -75.1650 268° West 407 468 32,000  Level Boston Center
07:17PM 43.1744 -75.3272 269° West 407 468 32,000  Level Boston Center
07:18PM 43.1725 -75.4864 269° West 418 481 32,000  Level Boston Center
07:19PM 43.1719 -75.6572 270° West 418 481 32,000  Level Boston Center
07:20PM 43.1694 -75.8167 269° West 418 481 32,000  Level Boston Center
07:21PM 43.1669 -75.9731 269° West 418 481 32,000 -60 Level Boston Center
07:23PM 43.1506 -76.3142 266° West 416 479 31,900  Descending Cleveland Center
07:24PM 43.1394 -76.4686 264° West 416 479 32,000  Climbing Cleveland Center
07:25PM 43.1261 -76.6233 263° West 416 479 32,000  Level Cleveland Center
07:26PM 43.1119 -76.7636 262° West 416 479 32,000  Level Cleveland Center
07:27PM 43.0964 -76.9208 262° West 410 472 32,000  Level Cleveland Center
07:28PM 43.0844 -77.0753 264° West 415 478 32,000  Level Cleveland Center
07:29PM 43.0703 -77.2294 263° West 415 478 32,000  Level Cleveland Center
07:30PM 43.0558 -77.3839 263° West 415 478 32,000  Level Cleveland Center
07:31PM 43.0392 -77.5408 262° West 415 478 32,000  Level Cleveland Center
07:32PM 43.0264 -77.6950 264° West 415 478 32,000  Level Cleveland Center
07:33PM 43.0094 -77.8489 261° West 415 478 32,000  Level Cleveland Center
07:34PM 42.9964 -78.0028 263° West 415 478 32,000  Level Cleveland Center
07:35PM 42.9786 -78.1569 261° West 415 478 32,000  Level Cleveland Center
07:36PM 42.9650 -78.3078 263° West 410 472 32,000  Level Cleveland Center
07:37PM 42.9494 -78.4644 262° West 410 472 32,000  Level Cleveland Center
07:38PM 42.9311 -78.6181 261° West 410 472 32,000  Level Cleveland Center
07:39PM 42.9111 -78.7889 261° West 410 472 32,000  Level Cleveland Center
07:40PM 42.8903 -78.9397 259° West 416 479 32,000  Level Cleveland Center
07:41PM 42.8653 -79.0961 258° West 416 479 32,000  Level Cleveland Center
07:42PM 42.8444 -79.2467 259° West 416 479 32,000  Level Cleveland Center
07:43PM 42.8208 -79.3972 258° West 411 473 32,000 -60 Level Cleveland Center
07:44PM 42.7994 -79.5503 259° West 411 473 31,900 -600 Descending Cleveland Center
07:45PM 42.7778 -79.7006 259° West 411 473 30,900 -1,020 Descending Cleveland Center
07:46PM 42.7558 -79.8508 259° West 411 473 29,900 -960 Descending Cleveland Center
07:47PM 42.7442 -79.9981 264° West 411 473 29,000 -960 Descending Cleveland Center
07:48PM 42.7386 -80.1478 267° West 406 467 28,000 -540 Descending Cleveland Center
07:49PM 42.7328 -80.2950 267° West 399 459 28,000  Level Cleveland Center
07:50PM 42.7269 -80.4392 267° West 394 453 28,000  Level Cleveland Center
07:51PM 42.7208 -80.5889 267° West 388 447 28,000  Level Cleveland Center
07:52PM 42.7122 -80.7358 265° West 402 463 28,000  Level Cleveland Center
07:53PM 42.7078 -80.8856 268° West 402 463 28,000  Level Cleveland Center
07:54PM 42.6906 -81.0294 261° West 402 463 28,000  Level Cleveland Center
07:55PM 42.6733 -81.1761 261° West 397 457 28,000 -480 Level Cleveland Center
07:56PM 42.6581 -81.3172 262° West 392 451 27,100 -1,200 Descending Cleveland Center
07:57PM 42.6403 -81.4608 260° West 387 445 25,600 -1,440 Descending Cleveland Center
07:58PM 42.6267 -81.5878 262° West 387 445 24,300 -1,440 Descending Cleveland Center
07:59PM 42.6086 -81.7286 260° West 387 445 22,800 -1,560 Descending Cleveland Center
08:00PM 42.5928 -81.8608 261° West 382 440 21,200 -2,160 Descending Cleveland Center
08:01PM 42.5767 -81.9872 260° West 364 419 18,500 -2,640 Descending Cleveland Center
08:02PM 42.5628 -82.1056 261° West 341 392 16,000 -2,340 Descending Cleveland Center
08:03PM 42.5464 -82.2233 259° West 330 380 13,900 -1,860 Descending Cleveland Center
08:04PM 42.5344 -82.3331 262° West 314 361 12,300 -960 Descending Cleveland Center
08:05PM 42.5203 -82.4425 260° West 308 354 12,000 -240 Descending Cleveland Center
08:06PM 42.5058 -82.5492 260° West 303 349 11,900 -480 Descending Cleveland Center
08:07PM 42.4619 -82.6772 245° Southwest 292 336 11,000 -900 Descending Cleveland Center
08:08PM 42.4292 -82.7661 243° Southwest 270 311 10,000 -1,140 Descending Cleveland Center
08:09PM 42.4131 -82.8358 253° West 282 325 8,900 -1,680 Descending Cleveland Center
08:10PM 42.4008 -82.9311 260° West 264 304 7,000 -1,440 Descending Cleveland Center
08:11PM 42.3883 -83.0261 260° West 259 298 6,000 -960 Descending Cleveland Center
08:12PM 42.3800 -83.1186 263° West 259 298 5,100 -1,080 Descending Cleveland Center
08:13PM 42.3439 -83.2464 249° West 230 265 3,500 -1,200 Descending Cleveland Center
08:14PM 42.2931 -83.2781 205° Southwest 204 235 2,300 -1,080 Descending Cleveland Center
08:15PM 42.2569 -83.3072 211° Southwest 140 161 1,500 -840 Descending Cleveland Center
08:16PM 42.2208 -83.3339 209° Southwest 141 162 700 -780 Descending Cleveland Center